createdAt,value
2023-02-07T00:00:25.896Z,53.41
2023-02-07T00:01:30.199Z,53.45
2023-02-07T00:02:34.499Z,53.33
2023-02-07T00:03:41.047Z,53.44
2023-02-07T00:04:45.361Z,53.5
2023-02-07T00:05:49.648Z,53.72
2023-02-07T00:06:53.986Z,53.75
2023-02-07T00:07:58.300Z,53.87
2023-02-07T00:09:02.626Z,53.93
2023-02-07T00:10:06.982Z,53.94
2023-02-07T00:11:11.288Z,53.82
2023-02-07T00:12:15.588Z,53.76
2023-02-07T00:13:19.902Z,53.77
2023-02-07T00:14:24.198Z,53.88
2023-02-07T00:15:28.494Z,54.05
2023-02-07T00:16:32.926Z,54.03
2023-02-07T00:17:37.232Z,54.13
2023-02-07T00:18:41.530Z,54.14
2023-02-07T00:19:45.813Z,54.12
2023-02-07T00:20:50.154Z,54.02
2023-02-07T00:21:54.428Z,54.13
2023-02-07T00:23:00.979Z,54.22
2023-02-07T00:24:05.286Z,54.13
2023-02-07T00:25:09.661Z,54.1
2023-02-07T00:26:13.955Z,54.22
2023-02-07T00:27:18.250Z,54.39
2023-02-07T00:28:22.911Z,54.19
2023-02-07T00:29:27.237Z,54.19
2023-02-07T00:30:31.944Z,54.38
2023-02-07T00:31:36.824Z,54.31
2023-02-07T00:32:41.131Z,54.39
2023-02-07T00:33:45.468Z,54.38
2023-02-07T00:34:49.775Z,54.38
2023-02-07T00:35:54.085Z,54.4
2023-02-07T00:36:58.422Z,54.31
2023-02-07T00:38:02.731Z,54.35
2023-02-07T00:39:07.073Z,54.33
2023-02-07T00:40:11.382Z,54.45
2023-02-07T00:41:15.649Z,54.42
2023-02-07T00:42:19.990Z,54.45
2023-02-07T00:43:31.821Z,54.47
2023-02-07T00:44:36.119Z,54.54
2023-02-07T00:45:41.335Z,54.51
2023-02-07T00:46:45.615Z,54.57
2023-02-07T00:47:49.941Z,54.47
2023-02-07T00:48:54.311Z,54.42
2023-02-07T00:49:58.625Z,54.48
2023-02-07T00:51:02.933Z,54.71
2023-02-07T00:52:07.210Z,54.69
2023-02-07T00:53:11.483Z,54.59
2023-02-07T00:54:15.761Z,54.72
2023-02-07T00:55:20.054Z,54.56
2023-02-07T00:56:24.359Z,54.58
2023-02-07T00:57:29.676Z,54.61
2023-02-07T00:58:33.927Z,54.58
2023-02-07T00:59:38.227Z,54.6
2023-02-07T01:00:42.551Z,54.72
2023-02-07T01:01:47.043Z,54.8
2023-02-07T01:02:51.357Z,54.79
2023-02-07T01:03:55.661Z,54.82
2023-02-07T01:05:00.122Z,54.78
2023-02-07T01:06:04.443Z,54.96
2023-02-07T01:07:08.747Z,54.87
2023-02-07T01:08:13.033Z,55.07
2023-02-07T01:09:17.323Z,54.99
2023-02-07T01:10:21.626Z,54.91
2023-02-07T01:11:25.902Z,54.91
2023-02-07T01:12:30.164Z,55.05
2023-02-07T01:13:34.494Z,55
2023-02-07T01:14:39.821Z,55.22
2023-02-07T01:15:44.295Z,55.01
2023-02-07T01:16:48.602Z,55.18
2023-02-07T01:17:52.887Z,55.18
2023-02-07T01:18:57.198Z,55.24
2023-02-07T01:20:01.544Z,55.11
2023-02-07T01:21:05.872Z,55.44
2023-02-07T01:22:10.139Z,55.46
2023-02-07T01:23:14.459Z,55.24
2023-02-07T01:24:18.789Z,55.34
2023-02-07T01:25:23.102Z,55.52
2023-02-07T01:26:27.396Z,55.27
2023-02-07T01:27:31.674Z,55.43
2023-02-07T01:28:36.000Z,55.44
2023-02-07T01:29:40.328Z,55.55
2023-02-07T01:30:45.008Z,55.46
2023-02-07T01:31:49.479Z,55.63
2023-02-07T01:32:53.780Z,55.68
2023-02-07T01:33:58.106Z,55.49
2023-02-07T01:35:02.420Z,55.79
2023-02-07T01:36:06.724Z,56.29
2023-02-07T01:37:11.024Z,56.6
2023-02-07T01:38:15.309Z,56.28
2023-02-07T01:39:19.572Z,55.89
2023-02-07T01:40:23.894Z,56.52
2023-02-07T01:41:28.248Z,56.02
2023-02-07T01:42:32.551Z,55.94
2023-02-07T01:43:36.905Z,56.22
2023-02-07T01:44:41.239Z,56.52
2023-02-07T01:45:45.592Z,56.31
2023-02-07T01:46:49.927Z,56.01
2023-02-07T01:47:54.203Z,56.58
2023-02-07T01:48:58.490Z,56.49
2023-02-07T01:50:03.781Z,56.58
2023-02-07T01:51:08.086Z,56.11
2023-02-07T01:52:12.403Z,56.22
2023-02-07T01:53:16.719Z,56.13
2023-02-07T01:54:21.023Z,56.23
2023-02-07T01:55:25.351Z,56.83
2023-02-07T01:56:34.166Z,56.66
2023-02-07T01:57:38.478Z,56.22
2023-02-07T01:58:42.772Z,56.14
2023-02-07T01:59:47.053Z,56.37
2023-02-07T02:00:51.350Z,56.52
2023-02-07T02:01:55.666Z,56.25
2023-02-07T02:03:00.188Z,56.43
2023-02-07T02:04:04.484Z,57.08
2023-02-07T02:05:08.782Z,56.98
2023-02-07T02:06:13.089Z,56.99
2023-02-07T02:07:17.383Z,56.97
2023-02-07T02:08:21.683Z,57.44
2023-02-07T02:09:25.962Z,57.58
2023-02-07T02:10:30.246Z,57.07
2023-02-07T02:11:34.539Z,57.16
2023-02-07T02:12:38.864Z,57.63
2023-02-07T02:13:43.161Z,57.57
2023-02-07T02:14:47.465Z,57.03
2023-02-07T02:15:51.851Z,57.55
2023-02-07T02:16:56.194Z,57.29
2023-02-07T02:18:00.491Z,57.54
2023-02-07T02:19:04.811Z,57.76
2023-02-07T02:20:09.094Z,57.57
2023-02-07T02:21:13.362Z,57.1
2023-02-07T02:22:17.638Z,57.28
2023-02-07T02:23:21.944Z,56.92
2023-02-07T02:24:26.220Z,57.41
2023-02-07T02:25:30.516Z,57.73
2023-02-07T02:26:34.875Z,56.97
2023-02-07T02:27:39.153Z,56.94
2023-02-07T02:28:43.450Z,57.49
2023-02-07T02:29:47.725Z,57.19
2023-02-07T02:30:52.509Z,57.06
2023-02-07T02:31:56.882Z,56.91
2023-02-07T02:33:01.182Z,57.17
2023-02-07T02:34:05.458Z,56.95
2023-02-07T02:35:09.841Z,56.81
2023-02-07T02:36:14.144Z,57.03
2023-02-07T02:37:18.474Z,56.73
2023-02-07T02:38:22.744Z,56.8
2023-02-07T02:39:27.020Z,56.83
2023-02-07T02:40:31.325Z,57.34
2023-02-07T02:41:35.626Z,56.95
2023-02-07T02:42:39.885Z,56.66
2023-02-07T02:43:44.221Z,56.54
2023-02-07T02:44:48.532Z,57.22
2023-02-07T02:45:52.876Z,57.04
2023-02-07T02:46:57.154Z,56.95
2023-02-07T02:48:01.491Z,57.01
2023-02-07T02:49:05.839Z,56.66
2023-02-07T02:50:10.092Z,56.76
2023-02-07T02:51:14.379Z,56.61
2023-02-07T02:52:18.695Z,56.65
2023-02-07T02:53:23.040Z,56.71
2023-02-07T02:54:27.419Z,57.02
2023-02-07T02:55:31.690Z,56.8
2023-02-07T02:56:36.017Z,56.67
2023-02-07T02:57:40.285Z,56.42
2023-02-07T02:58:44.616Z,56.62
2023-02-07T02:59:48.921Z,56.69
2023-02-07T03:00:53.207Z,56.75
2023-02-07T03:01:57.687Z,56.22
2023-02-07T03:03:01.977Z,56.65
2023-02-07T03:04:06.277Z,56.86
2023-02-07T03:05:10.792Z,56.37
2023-02-07T03:06:15.091Z,56.86
2023-02-07T03:07:19.372Z,56.66
2023-02-07T03:08:23.833Z,56.8
2023-02-07T03:09:28.222Z,56.13
2023-02-07T03:10:32.505Z,56.21
2023-02-07T03:11:36.798Z,56.86
2023-02-07T03:12:41.109Z,57
2023-02-07T03:13:45.433Z,56.78
2023-02-07T03:14:49.734Z,56.47
2023-02-07T03:15:54.132Z,56.61
2023-02-07T03:16:58.429Z,56.93
2023-02-07T03:18:02.698Z,56.53
2023-02-07T03:19:06.993Z,56.54
2023-02-07T03:20:11.287Z,56.51
2023-02-07T03:21:15.586Z,56.86
2023-02-07T03:22:19.920Z,56.48
2023-02-07T03:23:24.192Z,56.36
2023-02-07T03:24:28.549Z,56.32
2023-02-07T03:25:32.838Z,56.91
2023-02-07T03:26:37.103Z,56.89
2023-02-07T03:27:41.401Z,56.48
2023-02-07T03:28:45.706Z,56.65
2023-02-07T03:29:50.020Z,56.47
2023-02-07T03:30:54.461Z,56.37
2023-02-07T03:31:58.757Z,56.35
2023-02-07T03:33:03.051Z,56.46
2023-02-07T03:34:07.325Z,56.22
2023-02-07T03:35:11.649Z,56.42
2023-02-07T03:36:15.933Z,56.56
2023-02-07T03:37:20.223Z,56.43
2023-02-07T03:38:24.499Z,56.47
2023-02-07T03:39:28.805Z,56.61
2023-02-07T03:40:33.117Z,56.34
2023-02-07T03:41:37.399Z,56.36
2023-02-07T03:42:41.726Z,56.24
2023-02-07T03:43:46.079Z,56.24
2023-02-07T03:44:50.371Z,56.33
2023-02-07T03:45:54.644Z,56.37
2023-02-07T03:46:58.919Z,56.3
2023-02-07T03:48:03.213Z,56.15
2023-02-07T03:49:07.574Z,56.29
2023-02-07T03:50:11.911Z,56.17
2023-02-07T03:51:16.181Z,56.15
2023-02-07T03:52:20.490Z,56.34
2023-02-07T03:53:24.843Z,56.3
2023-02-07T03:54:29.137Z,56.37
2023-02-07T03:55:33.454Z,56.27
2023-02-07T03:56:37.739Z,56.34
2023-02-07T03:57:42.077Z,56.26
2023-02-07T03:58:46.649Z,56.22
2023-02-07T03:59:51.090Z,56.28
2023-02-07T04:00:55.573Z,56.3
2023-02-07T04:01:59.942Z,56.38
2023-02-07T04:03:04.325Z,56.24
2023-02-07T04:04:08.653Z,56.3
2023-02-07T04:05:12.947Z,56.37
2023-02-07T04:06:17.275Z,56.17
2023-02-07T04:07:21.586Z,56.34
2023-02-07T04:08:25.884Z,56.12
2023-02-07T04:09:30.186Z,56.43
2023-02-07T04:10:34.485Z,56.37
2023-02-07T04:11:38.787Z,56.87
2023-02-07T04:12:43.100Z,56.38
2023-02-07T04:13:47.422Z,56.89
2023-02-07T04:14:51.810Z,56.57
2023-02-07T04:15:56.137Z,56.41
2023-02-07T04:17:00.458Z,56.77
2023-02-07T04:18:04.768Z,56.87
2023-02-07T04:19:09.079Z,56.55
2023-02-07T04:20:13.379Z,56.58
2023-02-07T04:21:17.686Z,56.98
2023-02-07T04:22:22.029Z,56.99
2023-02-07T04:23:26.304Z,56.61
2023-02-07T04:24:30.606Z,56.82
2023-02-07T04:25:34.942Z,56.82
2023-02-07T04:26:39.219Z,56.95
2023-02-07T04:27:43.570Z,57
2023-02-07T04:28:47.870Z,57.08
2023-02-07T04:29:52.213Z,56.87
2023-02-07T04:30:56.710Z,56.97
2023-02-07T04:32:01.287Z,56.99
2023-02-07T04:33:05.568Z,56.76
2023-02-07T04:34:09.856Z,56.93
2023-02-07T04:35:14.196Z,57.1
2023-02-07T04:36:18.511Z,56.63
2023-02-07T04:37:22.874Z,56.83
2023-02-07T04:38:27.195Z,56.94
2023-02-07T04:39:31.469Z,56.88
2023-02-07T04:40:35.768Z,57.2
2023-02-07T04:41:40.084Z,56.75
2023-02-07T04:42:44.382Z,56.81
2023-02-07T04:43:48.738Z,56.81
2023-02-07T04:44:53.042Z,56.75
2023-02-07T04:45:57.528Z,56.95
2023-02-07T04:47:01.820Z,56.68
2023-02-07T04:48:06.109Z,56.76
2023-02-07T04:49:10.395Z,56.67
2023-02-07T04:50:14.681Z,56.71
2023-02-07T04:51:18.982Z,56.81
2023-02-07T04:52:23.289Z,56.98
2023-02-07T04:53:27.583Z,56.98
2023-02-07T04:54:31.872Z,56.58
2023-02-07T04:55:36.419Z,57.02
2023-02-07T04:56:40.793Z,57.02
2023-02-07T04:57:45.077Z,56.95
2023-02-07T04:58:49.339Z,56.97
2023-02-07T04:59:53.674Z,57
2023-02-07T05:00:58.147Z,57.17
2023-02-07T05:02:02.458Z,57.08
2023-02-07T05:03:06.773Z,57.15
2023-02-07T05:04:11.281Z,56.97
2023-02-07T05:05:15.639Z,55.96
2023-02-07T05:06:19.925Z,54.72
2023-02-07T05:07:24.338Z,54.44
2023-02-07T05:08:28.646Z,53.96
2023-02-07T05:09:32.943Z,53.13
2023-02-07T05:10:37.281Z,52.54
2023-02-07T05:11:41.585Z,52.36
2023-02-07T05:12:45.888Z,51.52
2023-02-07T05:13:50.191Z,51.36
2023-02-07T05:14:54.491Z,51.5
2023-02-07T05:15:58.834Z,51.08
2023-02-07T05:17:03.112Z,50.79
2023-02-07T05:18:07.404Z,50.49
2023-02-07T05:19:11.705Z,50.4
2023-02-07T05:20:16.023Z,50.14
2023-02-07T05:21:20.351Z,49.88
2023-02-07T05:22:24.660Z,49.79
2023-02-07T05:23:29.018Z,49.77
2023-02-07T05:24:33.344Z,49.46
2023-02-07T05:25:38.549Z,49.49
2023-02-07T05:26:42.995Z,49.59
2023-02-07T05:27:47.525Z,49.28
2023-02-07T05:28:51.821Z,49.36
2023-02-07T05:29:56.171Z,49.35
2023-02-07T05:31:00.804Z,49.23
2023-02-07T05:32:07.996Z,49.18
2023-02-07T05:33:12.286Z,49.17
2023-02-07T05:34:16.588Z,49.17
2023-02-07T05:35:21.049Z,49.11
2023-02-07T05:36:25.360Z,49.12
2023-02-07T05:37:29.688Z,48.78
2023-02-07T05:38:33.999Z,48.72
2023-02-07T05:39:38.322Z,48.66
2023-02-07T05:40:42.642Z,48.58
2023-02-07T05:41:46.997Z,48.21
2023-02-07T05:42:51.307Z,48.11
2023-02-07T05:43:55.609Z,47.93
2023-02-07T05:44:59.979Z,47.94
2023-02-07T05:46:05.443Z,47.73
2023-02-07T05:47:09.765Z,47.69
2023-02-07T05:48:14.060Z,47.52
2023-02-07T05:49:18.616Z,47.65
2023-02-07T05:50:22.988Z,47.56
2023-02-07T05:51:27.260Z,47.54
2023-02-07T05:52:32.554Z,47.49
2023-02-07T05:53:37.828Z,47.37
2023-02-07T05:54:42.226Z,47.42
2023-02-07T05:55:46.564Z,47.42
2023-02-07T05:56:50.853Z,47.47
2023-02-07T05:57:55.153Z,47.34
2023-02-07T05:58:59.450Z,47.6
2023-02-07T06:00:04.762Z,47.48
2023-02-07T06:01:09.070Z,47.44
2023-02-07T06:02:13.548Z,47.51
2023-02-07T06:03:18.086Z,47.65
2023-02-07T06:04:22.416Z,47.54
2023-02-07T06:05:26.768Z,47.59
2023-02-07T06:06:31.149Z,47.73
2023-02-07T06:07:35.443Z,47.69
2023-02-07T06:08:39.746Z,47.65
2023-02-07T06:09:44.070Z,47.88
2023-02-07T06:10:48.472Z,47.83
2023-02-07T06:11:52.852Z,47.97
2023-02-07T06:12:57.190Z,47.9
2023-02-07T06:14:01.547Z,47.96
2023-02-07T06:15:05.845Z,48.18
2023-02-07T06:16:10.342Z,48.07
2023-02-07T06:17:14.635Z,48.23
2023-02-07T06:18:18.929Z,48.25
2023-02-07T06:19:23.240Z,48.28
2023-02-07T06:20:27.594Z,48.4
2023-02-07T06:21:48.142Z,48.73
2023-02-07T06:22:52.455Z,48.69
2023-02-07T06:23:56.752Z,48.69
2023-02-07T06:25:01.048Z,48.8
2023-02-07T06:26:05.425Z,48.84
2023-02-07T06:27:09.712Z,48.93
2023-02-07T06:28:14.301Z,49.06
2023-02-07T06:29:18.654Z,49.17
2023-02-07T06:30:23.044Z,49.08
2023-02-07T06:31:27.441Z,49.19
2023-02-07T06:32:34.960Z,49.09
2023-02-07T06:33:39.301Z,49.22
2023-02-07T06:34:43.693Z,49.26
2023-02-07T06:35:47.993Z,49.02
2023-02-07T06:36:52.321Z,49.26
2023-02-07T06:37:57.244Z,49.25
2023-02-07T06:39:01.560Z,48.92
2023-02-07T06:40:06.028Z,49.11
2023-02-07T06:41:10.320Z,49.06
2023-02-07T06:42:14.597Z,48.97
2023-02-07T06:43:18.902Z,48.93
2023-02-07T06:44:23.228Z,49.06
2023-02-07T06:45:27.544Z,49.28
2023-02-07T06:46:32.050Z,49.11
2023-02-07T06:47:36.385Z,48.69
2023-02-07T06:48:40.686Z,48.6
2023-02-07T06:49:45.007Z,48.36
2023-02-07T06:50:49.327Z,48.23
2023-02-07T06:51:53.651Z,48.11
2023-02-07T06:52:57.933Z,47.93
2023-02-07T06:54:02.234Z,47.9
2023-02-07T06:55:06.563Z,47.77
2023-02-07T06:56:10.853Z,47.75
2023-02-07T06:57:15.277Z,47.68
2023-02-07T06:58:19.586Z,47.74
2023-02-07T06:59:23.917Z,47.46
2023-02-07T07:00:28.219Z,47.55
2023-02-07T07:01:32.663Z,47.44
2023-02-07T07:02:37.149Z,47.58
2023-02-07T07:03:41.435Z,47.39
2023-02-07T07:04:45.763Z,47.4
2023-02-07T07:05:50.056Z,47.44
2023-02-07T07:06:54.358Z,47.41
2023-02-07T07:07:58.692Z,47.42
2023-02-07T07:09:03.044Z,47.39
2023-02-07T07:10:07.610Z,47.51
2023-02-07T07:11:11.984Z,47.42
2023-02-07T07:12:16.282Z,47.41
2023-02-07T07:13:20.606Z,47.57
2023-02-07T07:14:24.929Z,47.62
2023-02-07T07:15:29.249Z,47.86
2023-02-07T07:16:33.603Z,47.58
2023-02-07T07:17:37.922Z,47.72
2023-02-07T07:18:42.235Z,47.78
2023-02-07T07:19:46.564Z,47.75
2023-02-07T07:20:50.846Z,47.85
2023-02-07T07:21:55.161Z,47.93
2023-02-07T07:22:59.435Z,47.91
2023-02-07T07:24:03.785Z,47.87
2023-02-07T07:25:08.137Z,47.98
2023-02-07T07:26:12.501Z,47.98
2023-02-07T07:27:16.854Z,48.02
2023-02-07T07:28:21.451Z,48.22
2023-02-07T07:29:25.771Z,48.3
2023-02-07T07:30:30.266Z,48.39
2023-02-07T07:31:34.695Z,48.6
2023-02-07T07:32:39.031Z,48.69
2023-02-07T07:33:43.392Z,48.48
2023-02-07T07:34:47.716Z,48.44
2023-02-07T07:35:52.305Z,48.57
2023-02-07T07:36:56.651Z,48.49
2023-02-07T07:38:00.977Z,48.42
2023-02-07T07:39:05.279Z,48.48
2023-02-07T07:40:09.605Z,48.39
2023-02-07T07:41:13.983Z,48.3
2023-02-07T07:42:18.285Z,48.31
2023-02-07T07:43:22.547Z,47.89
2023-02-07T07:44:26.849Z,47.83
2023-02-07T07:45:31.132Z,47.69
2023-02-07T07:46:35.659Z,47.73
2023-02-07T07:47:39.987Z,47.46
2023-02-07T07:48:44.283Z,47.62
2023-02-07T07:49:49.911Z,47.28
2023-02-07T07:50:55.295Z,47.11
2023-02-07T07:51:59.607Z,47.33
2023-02-07T07:53:03.949Z,47.35
2023-02-07T07:54:08.246Z,46.98
2023-02-07T07:55:12.564Z,47.17
2023-02-07T07:56:16.872Z,47.04
2023-02-07T07:57:23.290Z,46.98
2023-02-07T07:58:27.646Z,46.98
2023-02-07T07:59:31.963Z,47.04
2023-02-07T08:00:36.451Z,47.11
2023-02-07T08:01:40.773Z,47.08
2023-02-07T08:02:45.192Z,47.06
2023-02-07T08:03:49.628Z,47.18
2023-02-07T08:04:53.992Z,47.21
2023-02-07T08:05:58.401Z,47.11
2023-02-07T08:07:02.735Z,47.2
2023-02-07T08:08:07.058Z,47.42
2023-02-07T08:09:11.348Z,47.61
2023-02-07T08:10:15.660Z,47.39
2023-02-07T08:11:20.044Z,47.62
2023-02-07T08:12:24.379Z,47.47
2023-02-07T08:13:34.227Z,47.93
2023-02-07T08:14:38.551Z,47.62
2023-02-07T08:15:42.853Z,47.92
2023-02-07T08:16:47.230Z,47.8
2023-02-07T08:17:51.549Z,48.13
2023-02-07T08:18:55.837Z,48.06
2023-02-07T08:20:00.151Z,48.27
2023-02-07T08:21:04.467Z,48.24
2023-02-07T08:22:08.775Z,47.96
2023-02-07T08:23:13.087Z,48.23
2023-02-07T08:24:17.404Z,48.23
2023-02-07T08:25:21.715Z,48.19
2023-02-07T08:26:26.029Z,48.3
2023-02-07T08:27:30.336Z,48.33
2023-02-07T08:28:34.615Z,48.46
2023-02-07T08:29:38.937Z,48.49
2023-02-07T08:30:43.690Z,48.47
2023-02-07T08:31:48.188Z,48.34
2023-02-07T08:32:53.250Z,48.44
2023-02-07T08:33:57.546Z,48.29
2023-02-07T08:35:01.864Z,48.36
2023-02-07T08:36:06.250Z,48.45
2023-02-07T08:37:10.579Z,48.36
2023-02-07T08:38:14.878Z,48.36
2023-02-07T08:39:19.163Z,48.3
2023-02-07T08:40:23.503Z,48.32
2023-02-07T08:41:27.850Z,48.17
2023-02-07T08:42:32.113Z,48.3
2023-02-07T08:43:36.450Z,48.5
2023-02-07T08:44:40.723Z,48.43
2023-02-07T08:45:45.400Z,48.19
2023-02-07T08:46:49.747Z,47.83
2023-02-07T08:47:54.052Z,48
2023-02-07T08:48:58.333Z,47.55
2023-02-07T08:50:02.671Z,47.58
2023-02-07T08:51:06.970Z,47.45
2023-02-07T08:52:11.287Z,47.17
2023-02-07T08:53:15.554Z,47.1
2023-02-07T08:54:19.877Z,46.96
2023-02-07T08:55:24.203Z,46.75
2023-02-07T08:56:28.585Z,46.66
2023-02-07T08:57:33.076Z,46.45
2023-02-07T08:58:37.390Z,46.47
2023-02-07T08:59:41.730Z,46.37
2023-02-07T09:00:46.217Z,46.21
2023-02-07T09:01:50.556Z,46.18
2023-02-07T09:02:54.970Z,46.11
2023-02-07T09:03:59.291Z,46.01
2023-02-07T09:05:03.643Z,46.05
2023-02-07T09:06:08.184Z,46.02
2023-02-07T09:07:12.493Z,46.15
2023-02-07T09:08:16.803Z,46.13
2023-02-07T09:09:21.122Z,46.11
2023-02-07T09:10:26.266Z,46.11
2023-02-07T09:11:30.960Z,46.17
2023-02-07T09:12:35.300Z,46.21
2023-02-07T09:13:39.640Z,46.19
2023-02-07T09:14:43.930Z,46.27
2023-02-07T09:15:48.207Z,46.31
2023-02-07T09:16:52.645Z,46.35
2023-02-07T09:17:56.989Z,46.44
2023-02-07T09:19:01.325Z,46.58
2023-02-07T09:20:05.692Z,46.51
2023-02-07T09:21:09.990Z,46.6
2023-02-07T09:22:14.288Z,46.78
2023-02-07T09:23:18.661Z,46.92
2023-02-07T09:24:23.017Z,46.82
2023-02-07T09:25:27.295Z,46.86
2023-02-07T09:26:31.590Z,47.01
2023-02-07T09:27:35.905Z,46.97
2023-02-07T09:28:40.251Z,47.21
2023-02-07T09:29:44.564Z,47.13
2023-02-07T09:30:50.664Z,47.22
2023-02-07T09:31:55.753Z,47.31
2023-02-07T09:33:00.117Z,47.39
2023-02-07T09:34:04.523Z,47.46
2023-02-07T09:35:08.868Z,47.48
2023-02-07T09:36:13.178Z,47.5
2023-02-07T09:37:17.735Z,47.54
2023-02-07T09:38:22.020Z,47.61
2023-02-07T09:39:26.354Z,47.68
2023-02-07T09:40:30.660Z,47.72
2023-02-07T09:41:34.931Z,47.74
2023-02-07T09:42:39.251Z,47.69
2023-02-07T09:43:44.142Z,48.13
2023-02-07T09:44:49.229Z,47.94
2023-02-07T09:45:53.731Z,48.17
2023-02-07T09:46:58.263Z,47.92
2023-02-07T09:48:02.595Z,48.09
2023-02-07T09:49:06.885Z,47.88
2023-02-07T09:50:11.232Z,47.88
2023-02-07T09:51:15.546Z,48.07
2023-02-07T09:52:19.884Z,48.11
2023-02-07T09:53:24.270Z,47.73
2023-02-07T09:54:29.622Z,48.11
2023-02-07T09:55:33.958Z,47.79
2023-02-07T09:56:38.258Z,47.7
2023-02-07T09:57:42.577Z,47.66
2023-02-07T09:58:46.851Z,47.66
2023-02-07T09:59:51.132Z,47.45
2023-02-07T10:00:55.439Z,47.33
2023-02-07T10:01:59.768Z,47.08
2023-02-07T10:03:04.075Z,47.03
2023-02-07T10:04:08.402Z,47.24
2023-02-07T10:05:12.735Z,46.9
2023-02-07T10:06:23.352Z,46.92
2023-02-07T10:07:27.678Z,46.79
2023-02-07T10:08:42.590Z,46.87
2023-02-07T10:09:46.907Z,46.81
2023-02-07T10:10:51.221Z,46.88
2023-02-07T10:11:55.768Z,47.04
2023-02-07T10:13:00.145Z,46.92
2023-02-07T10:14:04.589Z,46.85
2023-02-07T10:15:08.905Z,46.98
2023-02-07T10:16:13.259Z,46.91
2023-02-07T10:17:32.991Z,46.93
2023-02-07T10:18:37.334Z,47
2023-02-07T10:19:41.825Z,47.03
2023-02-07T10:20:46.134Z,47.17
2023-02-07T10:21:51.440Z,47.13
2023-02-07T10:22:55.816Z,47.38
2023-02-07T10:24:00.162Z,47.22
2023-02-07T10:25:04.515Z,47.24
2023-02-07T10:26:08.798Z,47.38
2023-02-07T10:27:13.124Z,47.36
2023-02-07T10:28:17.694Z,47.38
2023-02-07T10:29:22.038Z,47.51
2023-02-07T10:30:26.505Z,47.49
2023-02-07T10:31:31.369Z,47.65
2023-02-07T10:32:35.789Z,47.79
2023-02-07T10:33:40.100Z,47.97
2023-02-07T10:34:44.402Z,48.06
2023-02-07T10:35:48.807Z,48.05
2023-02-07T10:36:53.179Z,47.72
2023-02-07T10:37:57.704Z,48.14
2023-02-07T10:39:12.174Z,47.99
2023-02-07T10:40:16.498Z,48.01
2023-02-07T10:41:20.850Z,47.9
2023-02-07T10:42:25.155Z,47.96
2023-02-07T10:43:29.475Z,47.97
2023-02-07T10:44:33.800Z,48.09
2023-02-07T10:45:38.144Z,48.03
2023-02-07T10:46:42.614Z,47.87
2023-02-07T10:47:46.941Z,47.98
2023-02-07T10:48:51.232Z,47.94
2023-02-07T10:49:55.519Z,47.68
2023-02-07T10:50:59.821Z,47.47
2023-02-07T10:52:04.182Z,47.47
2023-02-07T10:53:08.486Z,47.21
2023-02-07T10:54:12.757Z,47.04
2023-02-07T10:55:17.090Z,46.9
2023-02-07T10:56:21.403Z,46.78
2023-02-07T10:57:25.804Z,46.58
2023-02-07T10:58:30.113Z,46.64
2023-02-07T10:59:34.432Z,46.46
2023-02-07T11:00:42.214Z,46.3
2023-02-07T11:01:46.695Z,46.23
2023-02-07T11:02:51.208Z,46.24
2023-02-07T11:03:55.499Z,46.17
2023-02-07T11:05:00.300Z,46.11
2023-02-07T11:06:04.640Z,46.16
2023-02-07T11:07:08.985Z,46.07
2023-02-07T11:08:13.298Z,46.15
2023-02-07T11:09:19.827Z,46.15
2023-02-07T11:10:24.170Z,46.25
2023-02-07T11:11:28.470Z,46.24
2023-02-07T11:12:32.791Z,46.24
2023-02-07T11:13:37.135Z,46.26
2023-02-07T11:14:54.097Z,46.42
2023-02-07T11:15:58.586Z,46.48
2023-02-07T11:17:02.906Z,46.55
2023-02-07T11:18:07.212Z,46.51
2023-02-07T11:19:11.509Z,46.61
2023-02-07T11:20:15.793Z,46.69
2023-02-07T11:21:20.137Z,46.56
2023-02-07T11:22:24.455Z,46.67
2023-02-07T11:23:28.964Z,46.7
2023-02-07T11:24:33.332Z,46.77
2023-02-07T11:25:38.720Z,46.92
2023-02-07T11:26:43.131Z,46.84
2023-02-07T11:27:48.542Z,46.83
2023-02-07T11:28:52.882Z,46.85
2023-02-07T11:29:57.184Z,46.91
2023-02-07T11:31:01.816Z,47.07
2023-02-07T11:32:06.249Z,47.07
2023-02-07T11:33:10.551Z,47.15
2023-02-07T11:34:14.817Z,47.05
2023-02-07T11:35:19.100Z,47.15
2023-02-07T11:36:23.391Z,47.25
2023-02-07T11:37:27.803Z,47.44
2023-02-07T11:38:32.103Z,47.38
2023-02-07T11:39:36.453Z,47.51
2023-02-07T11:40:40.753Z,47.49
2023-02-07T11:41:45.052Z,47.35
2023-02-07T11:42:49.325Z,47.45
2023-02-07T11:43:53.590Z,47.34
2023-02-07T11:44:58.509Z,47.79
2023-02-07T11:46:02.848Z,47.63
2023-02-07T11:47:09.550Z,47.57
2023-02-07T11:48:13.838Z,47.43
2023-02-07T11:49:18.147Z,47.7
2023-02-07T11:50:22.591Z,47.54
2023-02-07T11:51:26.919Z,47.75
2023-02-07T11:52:31.214Z,47.53
2023-02-07T11:53:35.561Z,47.71
2023-02-07T11:54:39.865Z,43.45
2023-02-07T11:55:44.158Z,42.33
2023-02-07T11:56:48.441Z,40.81
2023-02-07T11:57:52.754Z,39.83
2023-02-07T11:58:57.064Z,38.8
2023-02-07T12:00:01.405Z,38.32
2023-02-07T12:01:05.723Z,38.11
2023-02-07T12:02:10.200Z,37.23
2023-02-07T12:03:14.561Z,37.05
2023-02-07T12:04:18.830Z,36.38
2023-02-07T12:05:23.316Z,35.79
2023-02-07T12:06:27.680Z,35.5
2023-02-07T12:07:31.964Z,35.74
2023-02-07T12:08:36.280Z,37.85
2023-02-07T12:09:40.581Z,43.16
2023-02-07T12:10:44.912Z,41.84
2023-02-07T12:11:49.489Z,43.3
2023-02-07T12:12:53.797Z,43.28
2023-02-07T12:13:58.133Z,42.59
2023-02-07T12:15:02.465Z,42.65
2023-02-07T12:16:07.059Z,42.49
2023-02-07T12:17:11.358Z,42.19
2023-02-07T12:18:15.732Z,42.27
2023-02-07T12:19:20.041Z,42.48
2023-02-07T12:20:24.326Z,42.54
2023-02-07T12:21:28.664Z,42.42
2023-02-07T12:22:32.985Z,42.61
2023-02-07T12:23:44.851Z,42.78
2023-02-07T12:24:49.152Z,42.69
2023-02-07T12:25:53.420Z,42.67
2023-02-07T12:26:57.707Z,42.87
2023-02-07T12:28:02.114Z,42.85
2023-02-07T12:29:15.609Z,43.1
2023-02-07T12:30:19.917Z,43.09
2023-02-07T12:31:24.558Z,43.3
2023-02-07T12:32:29.689Z,43.26
2023-02-07T12:33:34.021Z,43.35
2023-02-07T12:34:38.320Z,43.61
2023-02-07T12:35:59.009Z,43.93
2023-02-07T12:37:06.545Z,43.92
2023-02-07T12:38:10.872Z,44.15
2023-02-07T12:39:15.180Z,44.11
2023-02-07T12:40:19.528Z,44.01
2023-02-07T12:41:23.806Z,44.27
2023-02-07T12:42:28.084Z,44.33
2023-02-07T12:43:32.410Z,44.63
2023-02-07T12:44:36.722Z,44.4
2023-02-07T12:45:42.135Z,44.63
2023-02-07T12:46:46.454Z,44.56
2023-02-07T12:47:50.751Z,44.8
2023-02-07T12:48:55.136Z,44.62
2023-02-07T12:49:59.443Z,44.54
2023-02-07T12:51:03.736Z,44.58
2023-02-07T12:52:10.379Z,44.62
2023-02-07T12:53:14.662Z,44.6
2023-02-07T12:54:19.019Z,44.57
2023-02-07T12:55:23.417Z,44.54
2023-02-07T12:56:27.749Z,44.47
2023-02-07T12:57:32.086Z,44.32
2023-02-07T12:58:36.417Z,44.23
2023-02-07T12:59:40.734Z,44.06
2023-02-07T13:00:45.317Z,44
2023-02-07T13:01:49.644Z,43.87
2023-02-07T13:02:53.974Z,43.77
2023-02-07T13:03:58.325Z,43.63
2023-02-07T13:05:02.632Z,43.54
2023-02-07T13:06:06.942Z,43.43
2023-02-07T13:07:14.332Z,43.31
2023-02-07T13:08:18.642Z,43.28
2023-02-07T13:09:22.978Z,43.16
2023-02-07T13:10:27.303Z,43.27
2023-02-07T13:11:31.587Z,43.21
2023-02-07T13:12:35.898Z,43.24
2023-02-07T13:13:40.181Z,43.26
2023-02-07T13:14:44.485Z,43.32
2023-02-07T13:15:48.788Z,43.45
2023-02-07T13:16:53.320Z,43.46
2023-02-07T13:17:57.711Z,43.5
2023-02-07T13:19:02.019Z,43.65
2023-02-07T13:20:06.472Z,43.7
2023-02-07T13:21:10.797Z,43.72
2023-02-07T13:22:15.107Z,43.82
2023-02-07T13:23:19.436Z,43.79
2023-02-07T13:24:23.760Z,43.9
2023-02-07T13:25:28.065Z,44.1
2023-02-07T13:26:32.377Z,44.06
2023-02-07T13:27:36.746Z,44.25
2023-02-07T13:28:41.044Z,44.12
2023-02-07T13:29:45.358Z,44.3
2023-02-07T13:30:49.788Z,44.49
2023-02-07T13:31:54.492Z,44.44
2023-02-07T13:32:58.815Z,44.47
2023-02-07T13:34:04.499Z,44.5
2023-02-07T13:35:08.836Z,44.62
2023-02-07T13:36:13.109Z,44.55
2023-02-07T13:37:19.436Z,44.61
2023-02-07T13:38:23.713Z,44.75
2023-02-07T13:39:28.233Z,44.84
2023-02-07T13:40:32.590Z,44.96
2023-02-07T13:41:36.943Z,44.92
2023-02-07T13:42:41.220Z,44.94
2023-02-07T13:43:45.540Z,45
2023-02-07T13:44:49.798Z,45.12
2023-02-07T13:45:54.246Z,45.24
2023-02-07T13:46:58.564Z,45.28
2023-02-07T13:48:02.902Z,45.36
2023-02-07T13:49:07.203Z,45.43
2023-02-07T13:50:11.513Z,45.57
2023-02-07T13:51:15.980Z,45.59
2023-02-07T13:52:20.292Z,45.62
2023-02-07T13:53:24.637Z,45.64
2023-02-07T13:54:29.141Z,45.8